Decoded Metar for KNBC (BEAUFORT in SC, USA) (IATA:NBC) | Meteo·Mobile Aviation Weather
aviador You're here:

KNBC Decoded Metar

BEAUFORT in SC, USA
Report Time2018-09-25 11:56:00
UTC Time2018-09-25 12:39:32
Flight Rules vfr VFR
Wind050° at 07 kt
W.Decomp.*RWY 05: 7.0 kt HW 0.6 kt RCW
RWY 36: 4.0 kt HW 5.7 kt RCW
RWY 14: 0.6 kt HW 7 kt LCW
W.Rank050° ranks 12
Current wind is above 050° avg. (6.7)
Visibility9999 m
Phenomena:N/A
Clouds:Few 006 Hf
CeilingNone
Temp23°C (ISA +8)
Dew Point23°C (100% RH)
QNH1021 hPa
Density Alt1,076 ft
Elevation37 ft
Report Wrong Elevation
Raw Report
KNBC 251156Z COR 05007KT 8SM FEW006 23/23 A3015 RMK AO2 SLP210
T02330233 10244 20228 53015=

Extra information for KNBC:More info

Metar Taf Metar & Taf Last 4 Metars F.Rules Stats Wind Profile Meteogram Temp Stats Airport Information Weather charts Add Link Nearby VenuesMetar ALERT Operation Metar Decoded Social comments

AIRNAV info for KNBC